Time;durP1;ratioP1;P1;durP2;ratioP2;P2;SDS_P1;SDS_P2;PMS_P1;PMS_P2;Temp;Humidity;BMP_temperature;BMP_pressure;BME280_temperature;BME280_humidity;BME280_pressure;Samples;Min_cycle;Max_cycle;Signal;HPM_P1;HPM_P2
2021/03/17 00:01:04;;;;;;;3.93;2.00;;;3.60;99.90;;;;;;4993515;28;20143;-86
2021/03/17 00:03:29;;;;;;;3.83;1.90;;;3.60;99.90;;;;;;4978133;28;20034;-87
2021/03/17 00:05:55;;;;;;;4.10;1.97;;;3.60;99.90;;;;;;4985753;28;20086;-86
2021/03/17 00:08:21;;;;;;;3.60;1.97;;;3.60;99.90;;;;;;5002424;28;20113;-86
2021/03/17 00:10:52;;;;;;;3.27;1.60;;;3.60;99.90;;;;;;5005781;28;20507;-85
2021/03/17 00:13:21;;;;;;;4.00;1.67;;;3.60;99.90;;;;;;4987209;28;20030;-86
2021/03/17 00:15:47;;;;;;;3.83;1.93;;;3.60;99.90;;;;;;4988438;28;20029;-86
2021/03/17 00:18:14;;;;;;;4.47;2.03;;;3.50;99.90;;;;;;4993437;28;20090;-86
2021/03/17 00:20:40;;;;;;;4.83;2.17;;;3.60;99.90;;;;;;5007068;28;20035;-87
2021/03/17 00:23:06;;;;;;;6.33;2.23;;;3.60;99.90;;;;;;4989336;28;20095;-86
2021/03/17 00:25:37;;;;;;;3.73;1.90;;;3.60;99.90;;;;;;5007165;28;20026;-85
2021/03/17 00:28:03;;;;;;;4.90;2.40;;;3.60;99.90;;;;;;4989446;28;20041;-86
2021/03/17 00:30:30;;;;;;;4.40;2.10;;;3.50;99.90;;;;;;4985502;28;20026;-86
2021/03/17 00:32:59;;;;;;;4.73;2.07;;;3.50;99.90;;;;;;5006562;28;20038;-86
2021/03/17 00:35:24;;;;;;;5.00;2.50;;;3.50;99.90;;;;;;4989124;28;20098;-85
2021/03/17 00:37:50;;;;;;;6.07;2.47;;;3.50;99.90;;;;;;4993767;28;20415;-86
2021/03/17 00:40:16;;;;;;;5.47;2.30;;;3.50;99.90;;;;;;5006602;28;20031;-86
2021/03/17 00:42:42;;;;;;;4.20;2.20;;;3.60;99.90;;;;;;5006595;28;20031;-86
2021/03/17 00:45:08;;;;;;;4.00;2.20;;;3.50;99.90;;;;;;5003258;28;20086;-86
2021/03/17 00:47:34;;;;;;;4.10;2.00;;;3.60;99.90;;;;;;5009273;28;20030;-86
2021/03/17 00:50:00;;;;;;;4.60;2.23;;;3.60;99.90;;;;;;5007064;28;20113;-86
2021/03/17 00:52:25;;;;;;;4.30;1.83;;;3.50;99.90;;;;;;4980371;28;20045;-87
2021/03/17 00:54:51;;;;;;;5.00;2.60;;;3.50;99.90;;;;;;5002456;28;20042;-87
2021/03/17 00:57:17;;;;;;;5.17;2.23;;;3.60;99.90;;;;;;4988326;28;20026;-86
2021/03/17 00:59:43;;;;;;;4.13;1.93;;;3.50;99.90;;;;;;4988493;28;20034;-86
2021/03/17 01:02:08;;;;;;;4.10;1.97;;;3.50;99.90;;;;;;4989373;28;20468;-85
2021/03/17 01:04:34;;;;;;;4.93;2.40;;;3.50;99.90;;;;;;5004091;28;20061;-86
2021/03/17 01:07:00;;;;;;;4.40;2.37;;;3.40;99.90;;;;;;5006681;28;20577;-86
2021/03/17 01:09:25;;;;;;;3.83;2.20;;;3.40;99.90;;;;;;5006032;28;20106;-86
2021/03/17 01:11:51;;;;;;;4.70;2.30;;;3.50;99.90;;;;;;4986694;28;20122;-85
2021/03/17 01:14:16;;;;;;;5.23;2.70;;;3.40;99.90;;;;;;4987163;28;20034;-85
2021/03/17 01:16:42;;;;;;;5.63;3.50;;;3.40;99.90;;;;;;5008540;28;20038;-85
2021/03/17 01:19:08;;;;;;;4.73;3.03;;;3.40;99.90;;;;;;5010374;28;20026;-85
2021/03/17 01:21:33;;;;;;;5.67;3.37;;;3.40;99.90;;;;;;4993866;28;20030;-86
2021/03/17 01:23:59;;;;;;;5.87;3.60;;;3.40;99.90;;;;;;4994944;28;20054;-85
2021/03/17 01:26:25;;;;;;;5.33;3.27;;;3.40;99.90;;;;;;5018171;28;20042;-85
2021/03/17 01:28:50;;;;;;;5.73;3.40;;;3.30;99.90;;;;;;5013246;28;20061;-86
2021/03/17 01:31:16;;;;;;;6.00;3.40;;;3.30;99.90;;;;;;5010519;28;20102;-85
2021/03/17 01:33:42;;;;;;;6.50;3.80;;;3.30;99.90;;;;;;4995176;28;20035;-86
2021/03/17 01:36:08;;;;;;;5.70;3.50;;;3.30;99.90;;;;;;5011838;28;20026;-85
2021/03/17 01:38:34;;;;;;;6.60;3.90;;;3.30;99.90;;;;;;5014909;28;20065;-86
2021/03/17 01:41:00;;;;;;;6.30;3.80;;;3.30;99.90;;;;;;4998369;28;20033;-86
2021/03/17 01:43:25;;;;;;;6.17;3.83;;;3.30;99.90;;;;;;5010996;28;20400;-86
2021/03/17 01:45:51;;;;;;;6.37;3.93;;;3.30;99.90;;;;;;4993561;28;20126;-85
2021/03/17 01:48:18;;;;;;;5.67;3.67;;;3.30;99.90;;;;;;4992332;28;20029;-86
2021/03/17 01:50:48;;;;;;;9.07;4.87;;;3.40;99.90;;;;;;5004495;28;20030;-85
2021/03/17 01:53:19;;;;;;;6.73;3.60;;;3.30;99.90;;;;;;5004040;28;20484;-86
2021/03/17 01:55:45;;;;;;;7.40;3.78;;;3.30;99.90;;;;;;4977752;28;20022;-86
2021/03/17 01:58:11;;;;;;;6.57;3.80;;;3.30;99.90;;;;;;4982408;28;20133;-86
2021/03/17 02:00:39;;;;;;;7.53;4.60;;;3.20;99.90;;;;;;4996426;28;20383;-86
2021/03/17 02:03:05;;;;;;;7.33;4.07;;;3.20;99.90;;;;;;4978837;28;20022;-86
2021/03/17 02:05:34;;;;;;;7.57;4.00;;;3.20;99.90;;;;;;4979036;28;20026;-85
2021/03/17 02:08:05;;;;;;;7.50;3.90;;;3.20;99.90;;;;;;4978175;28;20034;-85
2021/03/17 02:10:32;;;;;;;6.80;4.30;;;3.30;99.90;;;;;;4981540;28;20018;-85
2021/03/17 02:13:37;;;;;;;8.90;4.40;;;3.20;99.90;;;;;;4994400;28;20438;-86
2021/03/17 02:16:13;;;;;;;6.20;3.63;;;3.20;99.90;;;;;;4949587;28;20101;-86
2021/03/17 02:19:12;;;;;;;7.50;4.50;;;3.20;99.90;;;;;;4995876;28;20026;-85
2021/03/17 02:21:50;;;;;;;7.27;4.57;;;3.30;99.90;;;;;;4991035;28;20139;-86
2021/03/17 02:24:36;;;;;;;7.80;4.80;;;3.20;99.90;;;;;;4992880;28;20030;-86
2021/03/17 02:27:23;;;;;;;7.10;4.13;;;3.20;99.90;;;;;;4980915;28;20026;-86
2021/03/17 02:29:48;;;;;;;8.00;4.70;;;3.20;99.90;;;;;;4993673;28;20026;-86
2021/03/17 02:32:32;;;;;;;7.53;4.57;;;3.20;99.90;;;;;;4977264;28;20662;-86
2021/03/17 02:35:03;;;;;;;8.80;4.57;;;3.20;99.90;;;;;;4979075;28;20396;-86
2021/03/17 02:37:32;;;;;;;5.95;3.30;;;3.20;99.90;;;;;;4995627;28;20028;-86
2021/03/17 02:40:05;;;;;;;9.53;5.17;;;3.20;99.90;;;;;;4994930;28;20054;-86
2021/03/17 02:42:45;;;;;;;8.87;5.40;;;3.20;99.90;;;;;;4995173;28;20018;-86
2021/03/17 02:45:14;;;;;;;7.53;4.20;;;3.20;99.90;;;;;;4977527;28;20132;-86
2021/03/17 02:47:58;;;;;;;8.07;4.90;;;3.30;99.90;;;;;;4977567;28;20087;-86
2021/03/17 02:50:26;;;;;;;7.93;4.77;;;3.30;99.90;;;;;;4993290;28;20022;-86
2021/03/17 02:52:54;;;;;;;7.60;4.30;;;3.30;99.90;;;;;;4977220;28;20375;-86
2021/03/17 02:55:24;;;;;;;7.37;4.50;;;3.30;99.90;;;;;;4976981;28;20487;-86
2021/03/17 02:57:54;;;;;;;6.90;3.90;;;3.20;99.90;;;;;;4977447;28;20022;-86
2021/03/17 03:00:20;;;;;;;7.03;4.20;;;3.20;99.90;;;;;;4991052;28;20164;-86
2021/03/17 03:02:49;;;;;;;7.47;4.90;;;3.20;99.90;;;;;;4994855;28;20022;-86
2021/03/17 03:05:16;;;;;;;7.37;4.90;;;3.20;99.90;;;;;;4976426;28;20022;-86
2021/03/17 03:07:46;;;;;;;7.07;4.37;;;3.10;99.90;;;;;;4989764;28;20054;-86
2021/03/17 03:10:13;;;;;;;7.07;4.30;;;3.10;99.90;;;;;;4992047;28;20023;-86
2021/03/17 03:12:41;;;;;;;8.80;4.80;;;3.20;99.90;;;;;;4994696;28;20026;-86
2021/03/17 03:15:10;;;;;;;7.53;4.53;;;3.20;99.90;;;;;;4984648;28;20033;-85
2021/03/17 03:17:37;;;;;;;6.43;3.87;;;3.20;99.90;;;;;;4992886;28;20020;-86
2021/03/17 03:20:07;;;;;;;7.10;4.10;;;3.20;99.90;;;;;;4976625;28;20430;-85
2021/03/17 03:22:32;;;;;;;6.33;3.90;;;3.20;99.90;;;;;;4975398;28;20364;-86
2021/03/17 03:24:58;;;;;;;5.67;3.67;;;3.10;99.90;;;;;;4994049;28;20076;-86
2021/03/17 03:27:25;;;;;;;7.27;4.47;;;3.10;99.90;;;;;;4992689;28;20088;-85
2021/03/17 03:29:52;;;;;;;5.80;3.60;;;3.20;99.90;;;;;;4980638;28;20033;-86
2021/03/17 03:32:18;;;;;;;6.73;3.90;;;3.10;99.90;;;;;;4993829;28;20026;-86
2021/03/17 03:34:43;;;;;;;6.57;4.07;;;3.10;99.90;;;;;;4994123;28;20086;-86
2021/03/17 03:37:09;;;;;;;7.40;4.13;;;3.20;99.90;;;;;;4978419;28;20054;-86
2021/03/17 03:39:35;;;;;;;7.10;3.87;;;3.10;99.90;;;;;;4994072;28;20035;-86
2021/03/17 03:42:01;;;;;;;7.00;4.03;;;3.10;99.90;;;;;;4994428;28;20054;-86
2021/03/17 03:44:27;;;;;;;7.87;4.30;;;3.10;99.90;;;;;;4976027;28;20054;-86
2021/03/17 03:46:53;;;;;;;6.67;4.47;;;3.10;99.90;;;;;;4978932;28;20026;-86
2021/03/17 03:49:18;;;;;;;7.70;4.43;;;3.10;99.90;;;;;;4980663;28;20037;-86
2021/03/17 03:51:55;;;;;;;7.67;4.20;;;3.10;99.90;;;;;;4980661;28;20088;-86
2021/03/17 03:54:48;;;;;;;6.43;4.00;;;3.10;99.90;;;;;;4993810;28;20044;-85
2021/03/17 03:57:36;;;;;;;7.43;4.00;;;3.10;99.90;;;;;;4980226;28;20062;-86
2021/03/17 04:00:08;;;;;;;9.27;3.70;;;3.10;99.90;;;;;;4981626;28;20026;-86
2021/03/17 04:02:39;;;;;;;6.90;4.30;;;3.10;99.90;;;;;;4990942;28;20026;-85
2021/03/17 04:05:08;;;;;;;5.87;3.90;;;3.00;99.90;;;;;;4982495;28;20117;-85
2021/03/17 04:07:36;;;;;;;7.63;4.57;;;3.00;99.90;;;;;;4980242;28;20026;-86
2021/03/17 04:10:07;;;;;;;10.03;4.90;;;3.10;99.90;;;;;;4980946;28;20081;-86
2021/03/17 04:12:39;;;;;;;8.40;5.30;;;3.00;99.90;;;;;;4979741;28;20042;-86
2021/03/17 04:15:06;;;;;;;;;;;3.00;99.90;;;;;;4987669;28;20033;-85
2021/03/17 04:17:54;;;;;;;7.67;4.90;;;3.10;99.90;;;;;;4986748;28;19925;-86
2021/03/17 04:20:26;;;;;;;8.10;5.17;;;3.00;99.90;;;;;;4998411;28;20019;-86
2021/03/17 04:22:53;;;;;;;9.55;4.85;;;3.00;99.90;;;;;;4978340;28;20023;-86
2021/03/17 04:25:20;;;;;;;9.20;4.93;;;3.00;99.90;;;;;;4998289;28;20022;-85
2021/03/17 04:27:49;;;;;;;9.90;5.30;;;3.00;99.90;;;;;;4990904;28;20376;-86
2021/03/17 04:30:16;;;;;;;9.20;5.03;;;3.00;99.90;;;;;;4979499;28;20030;-86
2021/03/17 04:32:47;;;;;;;8.13;5.10;;;3.00;99.90;;;;;;4979800;28;20038;-86
2021/03/17 04:35:14;;;;;;;7.67;5.40;;;3.00;99.90;;;;;;4979596;28;20037;-86
2021/03/17 04:37:42;;;;;;;9.50;5.83;;;3.00;99.90;;;;;;4979601;28;20119;-85
2021/03/17 04:40:10;;;;;;;8.20;5.17;;;3.00;99.90;;;;;;4980736;28;20026;-86
2021/03/17 04:42:36;;;;;;;9.60;5.97;;;3.00;99.90;;;;;;4978369;28;20542;-86
2021/03/17 04:45:03;;;;;;;9.43;5.63;;;3.00;99.90;;;;;;4981075;28;20031;-85
2021/03/17 04:47:30;;;;;;;9.10;5.90;;;2.90;99.90;;;;;;4979069;28;20117;-86
2021/03/17 04:49:57;;;;;;;10.50;6.17;;;3.00;99.90;;;;;;4983930;28;20038;-86
2021/03/17 04:52:24;;;;;;;11.03;6.87;;;3.00;99.90;;;;;;4996986;28;20046;-88
2021/03/17 04:54:52;;;;;;;11.37;7.20;;;2.90;99.90;;;;;;4978899;28;20030;-86
2021/03/17 04:57:27;;;;;;;10.67;7.03;;;3.00;99.90;;;;;;4996367;28;20089;-86
2021/03/17 04:59:54;;;;;;;10.70;6.90;;;3.00;99.90;;;;;;4977635;28;20018;-86
2021/03/17 05:02:26;;;;;;;11.50;7.60;;;2.90;99.90;;;;;;4991960;28;20022;-86
2021/03/17 05:04:53;;;;;;;11.13;7.00;;;2.90;99.90;;;;;;4994507;28;20046;-86
2021/03/17 05:07:20;;;;;;;11.40;7.80;;;2.90;99.90;;;;;;4980107;28;20034;-86
2021/03/17 05:09:47;;;;;;;10.90;7.33;;;2.90;99.90;;;;;;4979409;28;20427;-86
2021/03/17 05:12:15;;;;;;;13.80;8.00;;;2.90;99.90;;;;;;4980151;28;20022;-86
2021/03/17 05:14:41;;;;;;;13.23;8.33;;;2.90;99.90;;;;;;4977375;28;20514;-86
2021/03/17 05:17:09;;;;;;;12.93;8.80;;;2.90;99.90;;;;;;4995185;28;20018;-86
2021/03/17 05:19:38;;;;;;;12.50;8.13;;;2.90;99.90;;;;;;4990603;28;20081;-86
2021/03/17 05:22:06;;;;;;;13.17;8.70;;;2.90;99.90;;;;;;4980947;28;20113;-86
2021/03/17 05:24:33;;;;;;;14.07;9.23;;;2.90;99.90;;;;;;4996907;28;20387;-85
2021/03/17 05:27:02;;;;;;;13.47;9.10;;;2.90;99.90;;;;;;4980675;28;20386;-86
2021/03/17 05:29:28;;;;;;;12.50;8.73;;;2.90;99.90;;;;;;4983407;28;20023;-86
2021/03/17 05:31:54;;;;;;;13.33;9.53;;;2.90;99.90;;;;;;4995802;28;20514;-86
2021/03/17 05:34:21;;;;;;;15.60;9.93;;;2.90;99.90;;;;;;4977881;28;20042;-85
2021/03/17 05:36:47;;;;;;;14.90;10.07;;;2.90;99.90;;;;;;4979072;28;20019;-86
2021/03/17 05:39:14;;;;;;;16.60;10.47;;;2.90;99.90;;;;;;4983104;28;20026;-86
2021/03/17 05:41:39;;;;;;;17.30;10.90;;;2.90;99.90;;;;;;4994487;28;20026;-86
2021/03/17 05:44:06;;;;;;;15.60;9.80;;;2.90;99.90;;;;;;4978774;28;20030;-86
2021/03/17 05:46:33;;;;;;;17.60;11.73;;;3.00;99.90;;;;;;4996865;28;20077;-86
2021/03/17 05:49:00;;;;;;;16.33;10.90;;;2.90;99.90;;;;;;4985989;28;20041;-85
2021/03/17 05:51:25;;;;;;;16.57;10.97;;;3.00;99.90;;;;;;4993895;28;20034;-86
2021/03/17 05:53:51;;;;;;;16.37;11.10;;;3.00;99.90;;;;;;4995727;28;20109;-86
2021/03/17 05:56:17;;;;;;;17.57;11.73;;;2.90;99.90;;;;;;4995609;28;20023;-86
2021/03/17 05:58:44;;;;;;;16.77;11.10;;;3.00;99.90;;;;;;4990811;28;20049;-86
2021/03/17 06:01:16;;;;;;;17.73;11.80;;;3.00;99.90;;;;;;4975407;28;20027;-85
2021/03/17 06:03:43;;;;;;;19.58;12.75;;;3.00;99.90;;;;;;4977122;28;20030;-86
2021/03/17 06:06:11;;;;;;;24.63;13.37;;;2.90;99.90;;;;;;4977470;28;20034;-86
2021/03/17 06:09:01;;;;;;;20.63;13.07;;;2.90;99.90;;;;;;4993237;28;20026;-85
2021/03/17 06:11:27;;;;;;;20.43;12.67;;;3.00;99.90;;;;;;4977951;28;20038;-85
2021/03/17 06:13:56;;;;;;;20.40;13.27;;;3.00;99.90;;;;;;4978261;28;20023;-85
2021/03/17 06:16:25;;;;;;;18.87;12.90;;;3.00;99.90;;;;;;4976406;28;20118;-85
2021/03/17 06:18:55;;;;;;;21.23;13.93;;;3.00;99.90;;;;;;4977907;28;20050;-85
2021/03/17 06:21:21;;;;;;;23.53;13.77;;;3.00;99.90;;;;;;4981246;28;20042;-85
2021/03/17 06:23:50;;;;;;;22.57;14.07;;;3.00;99.90;;;;;;4995201;28;20736;-85
2021/03/17 06:26:16;;;;;;;24.23;14.50;;;3.00;99.90;;;;;;4977299;28;20113;-85
2021/03/17 06:28:44;;;;;;;23.93;14.33;;;3.00;99.90;;;;;;4994089;28;20057;-85
2021/03/17 06:31:10;;;;;;;23.40;14.80;;;3.00;99.90;;;;;;4975441;28;20061;-86
2021/03/17 06:33:37;;;;;;;22.57;14.37;;;3.10;99.90;;;;;;4975570;28;20030;-87
2021/03/17 06:36:16;;;;;;;22.13;14.03;;;3.00;99.90;;;;;;4990974;28;20582;-86
2021/03/17 06:38:43;;;;;;;20.93;13.10;;;3.10;99.90;;;;;;4990931;28;20025;-86
2021/03/17 06:41:09;;;;;;;22.10;13.73;;;3.00;99.90;;;;;;4991353;28;20029;-85
2021/03/17 06:43:43;;;;;;;19.77;12.20;;;2.90;99.90;;;;;;4991093;28;20435;-86
2021/03/17 06:46:11;;;;;;;20.93;12.50;;;3.00;99.90;;;;;;4975104;28;20109;-85
2021/03/17 06:48:41;;;;;;;22.63;12.77;;;3.00;99.90;;;;;;4975567;28;20434;-85
2021/03/17 06:51:21;;;;;;;22.43;13.57;;;2.90;99.90;;;;;;4980925;28;20098;-85
2021/03/17 06:53:47;;;;;;;26.40;15.23;;;2.90;99.90;;;;;;4974713;28;20030;-85
2021/03/17 06:56:29;;;;;;;23.20;14.77;;;3.00;99.90;;;;;;4969592;28;20026;-86
2021/03/17 06:59:03;;;;;;;24.58;15.57;;;3.00;99.90;;;;;;4974973;28;20026;-85
2021/03/17 07:01:34;;;;;;;28.37;16.83;;;3.10;99.90;;;;;;4991893;28;20033;-85
2021/03/17 07:04:05;;;;;;;26.67;16.10;;;3.00;99.90;;;;;;4974996;28;20045;-85
2021/03/17 07:06:33;;;;;;;27.40;17.48;;;3.00;99.90;;;;;;5007524;28;20032;-85
2021/03/17 07:09:12;;;;;;;31.17;17.03;;;3.10;99.90;;;;;;5005646;28;20041;-85
2021/03/17 07:11:37;;;;;;;27.87;16.53;;;3.10;99.90;;;;;;5006369;28;20030;-86
2021/03/17 07:14:04;;;;;;;25.83;16.17;;;3.10;99.90;;;;;;4991231;28;20110;-86
2021/03/17 07:16:38;;;;;;;27.50;16.50;;;3.20;99.90;;;;;;4991542;28;20388;-85
2021/03/17 07:19:05;;;;;;;25.47;15.80;;;3.20;99.90;;;;;;4991031;28;20030;-84
2021/03/17 07:21:41;;;;;;;23.43;14.57;;;3.20;99.90;;;;;;5004089;28;20041;-85
2021/03/17 07:24:09;;;;;;;24.10;14.87;;;3.20;99.90;;;;;;4987708;28;20600;-85
2021/03/17 07:26:36;;;;;;;21.17;13.63;;;3.30;99.90;;;;;;5005010;28;20022;-85
2021/03/17 07:29:07;;;;;;;23.30;15.13;;;3.30;99.90;;;;;;4993490;28;20029;-84
2021/03/17 07:31:41;;;;;;;24.53;15.53;;;3.40;99.90;;;;;;4992925;28;20061;-84
2021/03/17 07:34:27;;;;;;;27.90;15.53;;;3.40;99.90;;;;;;4995143;28;20150;-84
2021/03/17 07:36:57;;;;;;;23.97;14.23;;;3.50;99.90;;;;;;5002808;28;20031;-85
2021/03/17 07:39:27;;;;;;;24.13;14.57;;;3.50;99.90;;;;;;4984225;28;20022;-85
2021/03/17 07:41:54;;;;;;;24.13;14.37;;;3.50;99.90;;;;;;4987871;28;20026;-84
2021/03/17 07:44:21;;;;;;;23.17;13.77;;;3.60;99.90;;;;;;4979923;28;20034;-86
2021/03/17 07:46:50;;;;;;;21.27;13.73;;;3.60;99.90;;;;;;4991542;28;20121;-84
2021/03/17 07:49:17;;;;;;;22.03;12.57;;;3.60;99.90;;;;;;4986533;28;20109;-86
2021/03/17 07:51:49;;;;;;;19.47;11.93;;;3.70;99.90;;;;;;4983429;28;20088;-85
2021/03/17 07:54:32;;;;;;;17.35;11.20;;;3.60;99.90;;;;;;5001580;28;20034;-84
2021/03/17 07:57:00;;;;;;;18.40;11.30;;;3.80;99.90;;;;;;5002914;28;20030;-86
2021/03/17 07:59:26;;;;;;;19.90;12.20;;;3.80;99.90;;;;;;5002277;28;20034;-86
2021/03/17 08:01:53;;;;;;;19.73;11.23;;;3.90;99.90;;;;;;4979023;28;20026;-86
2021/03/17 08:04:25;;;;;;;20.90;12.13;;;4.00;99.90;;;;;;4976224;28;20595;-86
2021/03/17 08:06:51;;;;;;;18.83;11.80;;;3.90;99.90;;;;;;4977707;28;20084;-86
2021/03/17 08:09:17;;;;;;;19.30;12.20;;;4.00;99.90;;;;;;4983843;28;20035;-87
2021/03/17 08:11:43;;;;;;;18.03;11.40;;;4.00;99.90;;;;;;4970991;28;20053;-86
2021/03/17 08:14:13;;;;;;;20.77;12.07;;;4.00;99.90;;;;;;4977136;28;20029;-86
2021/03/17 08:16:40;;;;;;;13.93;9.03;;;4.00;99.90;;;;;;4976050;28;20053;-87
2021/03/17 08:19:23;;;;;;;12.93;8.27;;;4.10;99.90;;;;;;4990271;28;20023;-86
2021/03/17 08:22:03;;;;;;;8.50;4.63;;;4.10;99.90;;;;;;4994130;28;20011;-86
2021/03/17 08:24:38;;;;;;;6.83;3.00;;;4.20;99.90;;;;;;4966790;28;20410;-86
2021/03/17 08:27:07;;;;;;;7.67;3.43;;;4.20;99.90;;;;;;4977711;28;20296;-86
2021/03/17 08:29:37;;;;;;;6.47;3.20;;;4.30;99.90;;;;;;4970664;28;20033;-86
2021/03/17 08:32:04;;;;;;;9.67;5.30;;;4.40;99.90;;;;;;4971570;28;20065;-86
2021/03/17 08:34:32;;;;;;;9.83;5.00;;;4.40;99.90;;;;;;4974352;28;20031;-86
2021/03/17 08:37:03;;;;;;;9.33;5.53;;;4.60;99.90;;;;;;4992726;28;20168;-86
2021/03/17 08:39:32;;;;;;;10.33;5.50;;;4.50;99.90;;;;;;4976724;28;20484;-86
2021/03/17 08:42:12;;;;;;;12.27;6.13;;;4.60;99.90;;;;;;4990148;28;20023;-86
2021/03/17 08:44:41;;;;;;;11.60;6.57;;;4.80;99.90;;;;;;4976380;28;20033;-86
2021/03/17 08:47:15;;;;;;;11.13;5.97;;;5.00;99.90;;;;;;4991555;28;20026;-85
2021/03/17 08:49:41;;;;;;;13.40;6.40;;;5.10;99.90;;;;;;5003562;28;20053;-86
2021/03/17 08:52:37;;;;;;;10.23;5.97;;;5.20;99.90;;;;;;4977842;28;20034;-87
2021/03/17 08:55:06;;;;;;;10.53;6.50;;;5.30;99.90;;;;;;4988504;28;20041;-85
2021/03/17 08:57:59;;;;;;;10.73;5.47;;;5.40;99.90;;;;;;4975411;28;20086;-85
2021/03/17 09:00:48;;;;;;;9.60;5.20;;;5.30;99.90;;;;;;4975814;28;20391;-86
2021/03/17 09:03:35;;;;;;;9.23;4.93;;;5.20;99.90;;;;;;4993373;28;20113;-86
2021/03/17 09:06:23;;;;;;;10.13;5.53;;;5.00;99.90;;;;;;4993892;28;20022;-86
2021/03/17 09:08:50;;;;;;;10.53;5.50;;;4.90;99.90;;;;;;4985389;28;20019;-85
2021/03/17 09:11:30;;;;;;;10.50;5.97;;;4.90;99.90;;;;;;4979229;28;20447;-86
2021/03/17 09:14:07;;;;;;;9.43;5.47;;;5.00;99.90;;;;;;4988265;28;20053;-86
2021/03/17 09:16:36;;;;;;;9.97;5.30;;;5.10;99.90;;;;;;4980349;28;20068;-86
2021/03/17 09:19:13;;;;;;;9.80;5.27;;;5.40;99.90;;;;;;4983840;28;20122;-86
2021/03/17 09:21:44;;;;;;;7.37;4.07;;;5.60;99.90;;;;;;4986416;28;20483;-86
2021/03/17 09:24:29;;;;;;;6.97;3.53;;;5.80;99.90;;;;;;4973090;28;20126;-86
2021/03/17 09:27:05;;;;;;;7.03;3.97;;;6.00;99.90;;;;;;4988149;28;20037;-86
2021/03/17 09:29:32;;;;;;;7.77;3.73;;;6.10;99.90;;;;;;4972528;28;20117;-86
2021/03/17 09:32:00;;;;;;;7.20;3.20;;;6.20;99.90;;;;;;4977379;28;20109;-86
2021/03/17 09:34:30;;;;;;;6.17;2.50;;;6.20;99.90;;;;;;4991134;28;20054;-86
2021/03/17 09:37:06;;;;;;;5.80;2.17;;;6.00;99.90;;;;;;4978150;28;20026;-86
2021/03/17 09:39:33;;;;;;;5.90;3.17;;;5.90;99.90;;;;;;4994084;28;20022;-86
2021/03/17 09:42:00;;;;;;;7.97;3.50;;;5.90;99.90;;;;;;4980565;28;20053;-86
2021/03/17 09:44:25;;;;;;;8.37;3.30;;;5.70;99.90;;;;;;4984018;28;20026;-86
2021/03/17 09:46:52;;;;;;;5.90;3.10;;;5.60;99.90;;;;;;4980229;28;20033;-86
2021/03/17 09:49:26;;;;;;;6.73;3.60;;;5.70;99.90;;;;;;4976890;28;20030;-86
2021/03/17 09:52:01;;;;;;;7.43;3.33;;;5.80;99.90;;;;;;4974356;28;20085;-86
2021/03/17 09:54:32;;;;;;;8.57;3.37;;;5.80;99.90;;;;;;4969283;28;20030;-86
2021/03/17 09:57:03;;;;;;;7.60;3.60;;;5.90;99.90;;;;;;4984387;28;20031;-86
2021/03/17 09:59:31;;;;;;;7.37;3.53;;;5.80;99.90;;;;;;4994763;28;20025;-86
2021/03/17 10:02:09;;;;;;;8.00;3.10;;;5.80;99.90;;;;;;4976825;28;20057;-86
2021/03/17 10:04:43;;;;;;;6.07;3.30;;;5.70;99.90;;;;;;4973747;28;20061;-86
2021/03/17 10:07:13;;;;;;;5.23;2.70;;;5.60;99.90;;;;;;4977579;28;20018;-86
2021/03/17 10:09:41;;;;;;;5.10;2.07;;;5.60;99.90;;;;;;4979083;28;20030;-87
2021/03/17 10:12:09;;;;;;;5.10;2.40;;;5.60;99.90;;;;;;4995432;28;20022;-86
2021/03/17 10:14:46;;;;;;;6.70;2.90;;;5.70;99.90;;;;;;4991615;28;20035;-86
2021/03/17 10:17:13;;;;;;;5.27;3.17;;;5.90;99.90;;;;;;4980365;28;20077;-86
2021/03/17 10:19:40;;;;;;;6.47;3.17;;;6.20;99.90;;;;;;4976861;28;20145;-86
2021/03/17 10:22:07;;;;;;;5.40;3.13;;;6.50;99.90;;;;;;4977173;28;20026;-85
2021/03/17 10:24:34;;;;;;;6.50;3.40;;;6.80;99.90;;;;;;4978836;28;20046;-86
2021/03/17 10:27:01;;;;;;;5.53;2.77;;;6.90;99.90;;;;;;4992916;28;20022;-86
2021/03/17 10:29:27;;;;;;;8.53;2.83;;;6.90;99.90;;;;;;4975228;28;20026;-85
2021/03/17 10:31:55;;;;;;;5.37;2.50;;;6.90;99.90;;;;;;4984370;28;20026;-86
2021/03/17 10:34:25;;;;;;;5.53;2.43;;;6.90;99.90;;;;;;4977701;28;20125;-86
2021/03/17 10:36:55;;;;;;;5.83;3.13;;;6.70;99.90;;;;;;4971774;28;20037;-86
2021/03/17 10:39:26;;;;;;;6.97;3.07;;;6.50;99.90;;;;;;4996947;28;20030;-86
2021/03/17 10:41:52;;;;;;;6.07;2.93;;;6.50;99.90;;;;;;4976490;28;20105;-84
2021/03/17 10:44:21;;;;;;;6.70;3.30;;;6.40;99.90;;;;;;4981365;28;20305;-86
2021/03/17 10:47:03;;;;;;;5.40;3.20;;;6.40;99.90;;;;;;4981609;28;20022;-85
2021/03/17 10:49:32;;;;;;;7.27;3.40;;;6.40;99.90;;;;;;4971962;28;20041;-86
2021/03/17 10:51:59;;;;;;;7.93;3.23;;;6.30;99.90;;;;;;4991209;28;20121;-86
2021/03/17 10:54:35;;;;;;;5.87;2.47;;;6.40;99.90;;;;;;4980176;28;20033;-87
2021/03/17 10:57:02;;;;;;;5.13;2.70;;;6.40;99.90;;;;;;4975408;28;20106;-86
2021/03/17 10:59:33;;;;;;;5.90;2.20;;;6.60;99.90;;;;;;4978419;28;20018;-85
2021/03/17 11:02:21;;;;;;;7.27;2.60;;;6.60;99.90;;;;;;4981631;28;20110;-85
2021/03/17 11:05:05;;;;;;;5.37;2.70;;;6.60;99.90;;;;;;4991296;28;20293;-87
2021/03/17 11:07:59;;;;;;;5.03;2.50;;;6.90;99.90;;;;;;4978648;28;20116;-86
2021/03/17 11:10:43;;;;;;;6.80;3.07;;;7.00;99.90;;;;;;4979030;28;20121;-85
2021/03/17 11:13:08;;;;;;;5.63;3.00;;;6.70;99.90;;;;;;4993468;28;20026;-84
2021/03/17 11:15:35;;;;;;;6.60;3.23;;;6.70;99.90;;;;;;4977709;28;20789;-85
2021/03/17 11:18:00;;;;;;;7.37;3.97;;;6.50;99.90;;;;;;4984492;28;20046;-86
2021/03/17 11:20:26;;;;;;;10.63;4.13;;;6.30;99.90;;;;;;4982317;28;20022;-85
2021/03/17 11:22:53;;;;;;;8.40;3.80;;;6.10;99.90;;;;;;4997061;28;20029;-85
2021/03/17 11:25:26;;;;;;;9.43;4.10;;;6.00;99.90;;;;;;4981830;28;20090;-85
2021/03/17 11:27:53;;;;;;;7.40;3.93;;;5.90;99.90;;;;;;4985541;28;20543;-85
2021/03/17 11:30:20;;;;;;;8.17;4.10;;;5.70;99.90;;;;;;4979750;28;20032;-85
2021/03/17 11:32:46;;;;;;;8.90;4.27;;;5.60;99.90;;;;;;4975715;28;20038;-85
2021/03/17 11:35:13;;;;;;;18.43;9.70;;;5.50;99.90;;;;;;4998916;28;20030;-85
2021/03/17 11:37:39;;;;;;;12.23;6.03;;;5.40;99.90;;;;;;4985064;28;20640;-85
2021/03/17 11:40:06;;;;;;;13.27;6.13;;;5.40;99.90;;;;;;4979551;28;20452;-85
2021/03/17 11:42:32;;;;;;;17.93;9.07;;;5.30;99.90;;;;;;4967698;28;20069;-85
2021/03/17 11:44:58;;;;;;;12.57;6.47;;;5.30;99.90;;;;;;4977978;28;20772;-85
2021/03/17 11:47:24;;;;;;;9.00;5.10;;;5.30;99.90;;;;;;4984010;28;20380;-85
2021/03/17 11:49:50;;;;;;;9.33;4.80;;;5.30;99.90;;;;;;4993599;28;20039;-85
2021/03/17 11:52:15;;;;;;;7.87;4.43;;;5.20;99.90;;;;;;4995637;28;20046;-85
2021/03/17 11:54:41;;;;;;;9.30;4.27;;;5.20;99.90;;;;;;4978228;28;20096;-88
2021/03/17 11:57:07;;;;;;;10.23;4.63;;;5.10;99.90;;;;;;4989801;28;20034;-86
2021/03/17 11:59:33;;;;;;;8.53;4.30;;;5.00;99.90;;;;;;4999273;28;20089;-86
2021/03/17 12:02:01;;;;;;;10.10;4.90;;;5.00;99.90;;;;;;4999286;28;20430;-86
2021/03/17 12:04:27;;;;;;;9.20;4.07;;;4.90;99.90;;;;;;4977400;28;20038;-86
2021/03/17 12:06:52;;;;;;;10.40;4.73;;;4.70;99.90;;;;;;4984058;28;20041;-86
2021/03/17 12:09:18;;;;;;;11.73;5.47;;;4.60;99.90;;;;;;5004978;28;20034;-86
2021/03/17 12:11:44;;;;;;;12.13;5.33;;;4.40;99.90;;;;;;4991418;28;20041;-85
2021/03/17 12:14:10;;;;;;;10.73;5.27;;;4.30;99.90;;;;;;5008168;28;20057;-86
2021/03/17 12:16:36;;;;;;;9.87;5.00;;;4.10;99.90;;;;;;4996378;28;20172;-86
2021/03/17 12:19:02;;;;;;;9.83;5.17;;;4.00;99.90;;;;;;4997343;28;20049;-86
2021/03/17 12:21:28;;;;;;;10.47;5.30;;;3.80;99.90;;;;;;4992954;28;20860;-86
2021/03/17 12:23:53;;;;;;;10.47;5.80;;;3.60;99.90;;;;;;4994469;28;20034;-86
2021/03/17 12:26:20;;;;;;;11.10;6.17;;;3.50;99.90;;;;;;4995486;28;20033;-85
2021/03/17 12:28:46;;;;;;;11.03;5.70;;;3.50;99.90;;;;;;5006424;28;20033;-86
2021/03/17 12:33:44;;;;;;;10.97;6.07;;;3.40;99.90;;;;;;4972693;28;20043;-85
2021/03/17 12:36:10;;;;;;;11.53;6.43;;;3.30;99.90;;;;;;4978246;28;20054;-85
2021/03/17 12:38:36;;;;;;;13.20;6.87;;;3.40;99.90;;;;;;4968393;28;20026;-85
2021/03/17 12:41:02;;;;;;;13.87;6.80;;;3.20;99.90;;;;;;4977597;28;20126;-85
2021/03/17 12:43:29;;;;;;;13.93;7.47;;;3.30;99.90;;;;;;4971946;28;20026;-88
2021/03/17 12:45:54;;;;;;;11.43;7.20;;;3.30;99.90;;;;;;4951954;28;20598;-85
2021/03/17 12:48:21;;;;;;;12.60;6.53;;;3.30;99.90;;;;;;4954158;28;20019;-85
2021/03/17 12:50:47;;;;;;;12.10;6.93;;;3.30;99.90;;;;;;4954146;28;20876;-85
2021/03/17 12:53:12;;;;;;;11.83;6.97;;;3.40;99.90;;;;;;4955411;28;20019;-86
2021/03/17 12:55:38;;;;;;;12.53;7.80;;;3.30;99.90;;;;;;4975645;28;20063;-85
2021/03/17 12:58:03;;;;;;;14.00;8.90;;;3.30;99.90;;;;;;4971632;28;20023;-85
2021/03/17 13:00:30;;;;;;;13.20;6.87;;;3.20;99.90;;;;;;4957618;28;20023;-86
2021/03/17 13:02:55;;;;;;;8.70;5.40;;;3.20;99.90;;;;;;4969446;28;20531;-86
2021/03/17 13:05:21;;;;;;;9.07;5.47;;;3.20;99.90;;;;;;4949466;28;20035;-85